createdAt,value
2018-12-25T00:01:47.825Z,12.03
2018-12-25T00:04:28.844Z,9.10
2018-12-25T00:06:59.634Z,8.45
2018-12-25T00:12:18.707Z,11.30
2018-12-25T00:15:08.015Z,9.33
2018-12-25T00:17:57.178Z,8.15
2018-12-25T00:20:46.680Z,9.28
2018-12-25T00:23:35.701Z,9.10
2018-12-25T00:26:25.144Z,7.17
2018-12-25T00:43:14.742Z,7.33
2018-12-25T00:45:56.207Z,6.50
2018-12-25T00:48:37.720Z,8.00
2018-12-25T00:51:19.637Z,8.75
2018-12-25T00:59:56.574Z,7.22
2018-12-25T01:11:27.139Z,6.95
2018-12-25T01:16:58.406Z,7.90
2018-12-25T01:19:39.572Z,9.98
2018-12-25T01:22:20.992Z,8.08
2018-12-25T01:25:02.728Z,7.33
2018-12-25T01:27:44.352Z,10.05
2018-12-25T01:30:25.957Z,7.17
2018-12-25T01:33:07.702Z,7.60
2018-12-25T01:35:49.081Z,5.28
2018-12-25T01:38:30.449Z,10.05
2018-12-25T01:41:11.708Z,13.32
2018-12-25T01:43:52.740Z,7.67
2018-12-25T01:46:34.589Z,7.92
2018-12-25T02:01:00.548Z,9.78
2018-12-25T02:03:42.360Z,12.78
2018-12-25T02:06:23.780Z,11.28
2018-12-25T02:14:47.336Z,7.87
2018-12-25T02:17:28.556Z,10.85
2018-12-25T02:28:42.462Z,8.88
2018-12-25T02:31:31.592Z,9.48
2018-12-25T02:37:02.998Z,8.85
2018-12-25T02:39:51.710Z,14.53
2018-12-25T02:42:40.725Z,9.48
2018-12-25T02:45:10.773Z,10.23
2018-12-25T02:47:40.932Z,9.85
2018-12-25T02:50:22.128Z,10.08
2018-12-25T02:53:04.115Z,9.85
2018-12-25T02:55:45.816Z,7.60
2018-12-25T02:58:27.293Z,11.73
2018-12-25T03:03:57.310Z,7.70
2018-12-25T03:09:27.954Z,9.33
2018-12-25T03:12:08.662Z,8.70
2018-12-25T03:26:08.333Z,9.90
2018-12-25T03:34:36.157Z,10.32
2018-12-25T03:37:24.866Z,13.55
2018-12-25T03:40:12.596Z,8.85
2018-12-25T03:48:41.558Z,12.30
2018-12-25T03:51:30.366Z,13.40
2018-12-25T03:54:11.573Z,14.45
2018-12-25T03:56:41.692Z,9.25
2018-12-25T03:59:30.909Z,10.60
2018-12-25T04:02:19.184Z,16.90
2018-12-25T04:16:28.648Z,11.30
2018-12-25T04:19:17.914Z,10.72
2018-12-25T04:25:02.255Z,10.08
2018-12-25T04:27:51.136Z,10.50
2018-12-25T04:30:40.021Z,10.68
2018-12-25T04:33:29.136Z,11.83
2018-12-25T04:36:18.313Z,15.58
2018-12-25T04:39:07.388Z,10.48
2018-12-25T04:41:38.170Z,11.35
2018-12-25T04:44:27.412Z,10.80
2018-12-25T04:47:16.366Z,16.37
2018-12-25T04:50:05.391Z,10.88
2018-12-25T04:52:54.380Z,11.20
2018-12-25T04:55:43.268Z,12.23
2018-12-25T04:58:13.513Z,11.30
2018-12-25T05:01:02.329Z,14.13
2018-12-25T05:03:51.534Z,15.48
2018-12-25T05:06:40.601Z,14.30
2018-12-25T05:09:29.753Z,12.90
2018-12-25T05:12:18.842Z,14.05
2018-12-25T05:14:48.895Z,12.70
2018-12-25T05:17:37.522Z,13.50
2018-12-25T05:20:26.563Z,13.85
2018-12-25T05:23:15.343Z,11.25
2018-12-25T05:26:04.235Z,14.35
2018-12-25T05:28:52.799Z,12.47
2018-12-25T05:31:41.565Z,11.10
2018-12-25T05:34:30.126Z,13.60
2018-12-25T05:36:59.511Z,11.53
2018-12-25T05:42:37.819Z,11.43
2018-12-25T05:45:19.229Z,15.78
2018-12-25T05:48:01.187Z,12.98
2018-12-25T05:50:46.701Z,16.73
2018-12-25T05:53:25.427Z,16.50
2018-12-25T05:56:07.000Z,16.90
2018-12-25T05:58:48.343Z,18.55
2018-12-25T06:01:29.546Z,19.10
2018-12-25T06:04:10.718Z,23.92
2018-12-25T06:06:40.503Z,28.92
2018-12-25T06:09:28.804Z,22.93
2018-12-25T06:15:09.985Z,17.30
2018-12-25T06:17:58.862Z,18.25
2018-12-25T06:23:39.474Z,20.12
2018-12-25T06:26:28.610Z,16.52
2018-12-25T06:29:17.525Z,25.43
2018-12-25T06:32:06.118Z,19.20
2018-12-25T06:34:36.142Z,15.75
2018-12-25T06:37:24.691Z,13.85
2018-12-25T06:40:13.386Z,21.70
2018-12-25T06:43:02.418Z,16.85
2018-12-25T06:45:50.923Z,33.13
2018-12-25T06:48:40.192Z,28.67
2018-12-25T06:51:29.324Z,34.30
2018-12-25T06:53:59.088Z,29.50
2018-12-25T06:56:29.252Z,28.25
2018-12-25T06:59:17.869Z,17.60
2018-12-25T07:02:06.599Z,18.40
2018-12-25T07:04:36.810Z,15.93
2018-12-25T07:07:06.365Z,14.25
2018-12-25T07:09:36.635Z,17.57
2018-12-25T07:12:06.759Z,10.43
2018-12-25T07:14:36.149Z,15.55
2018-12-25T07:17:24.671Z,12.10
2018-12-25T07:20:13.131Z,14.80
2018-12-25T07:23:02.408Z,13.72
2018-12-25T07:25:51.822Z,11.45
2018-12-25T07:28:40.845Z,13.05
2018-12-25T07:31:29.816Z,17.30
2018-12-25T07:34:19.027Z,12.70
2018-12-25T07:37:08.144Z,13.05
2018-12-25T07:39:57.099Z,10.43
2018-12-25T07:42:46.064Z,17.20
2018-12-25T07:45:35.066Z,15.40
2018-12-25T07:48:24.189Z,12.73
2018-12-25T07:51:20.531Z,13.13
2018-12-25T07:53:56.203Z,16.48
2018-12-25T07:56:37.069Z,11.63
2018-12-25T07:59:17.803Z,14.53
2018-12-25T08:01:48.538Z,11.33
2018-12-25T08:04:37.573Z,11.97
2018-12-25T08:07:26.499Z,11.22
2018-12-25T08:10:15.281Z,12.25
2018-12-25T08:13:04.347Z,16.73
2018-12-25T08:15:52.856Z,13.40
2018-12-25T08:18:41.753Z,10.35
2018-12-25T08:21:30.667Z,10.30
2018-12-25T08:24:19.466Z,10.00
2018-12-25T08:27:08.403Z,10.90
2018-12-25T08:29:38.399Z,11.20
2018-12-25T08:32:27.044Z,11.57
2018-12-25T08:35:15.883Z,13.80
2018-12-25T08:37:57.007Z,15.45
2018-12-25T08:40:38.409Z,13.55
2018-12-25T08:43:19.809Z,16.05
2018-12-25T08:46:01.483Z,13.30
2018-12-25T08:48:42.925Z,13.25
2018-12-25T08:51:24.729Z,14.25
2018-12-25T08:54:06.266Z,14.87
2018-12-25T08:56:47.575Z,12.88
2018-12-25T08:59:29.297Z,13.72
2018-12-25T09:02:10.556Z,13.10
2018-12-25T09:04:51.880Z,17.77
2018-12-25T09:07:21.677Z,17.65
2018-12-25T09:10:10.489Z,15.78
2018-12-25T09:12:59.605Z,14.93
2018-12-25T09:15:48.707Z,16.37
2018-12-25T09:18:19.180Z,14.90
2018-12-25T09:21:08.257Z,18.12
2018-12-25T09:23:56.863Z,17.50
2018-12-25T09:26:45.377Z,17.92
2018-12-25T09:29:34.123Z,15.45
2018-12-25T09:32:23.028Z,12.93
2018-12-25T09:35:11.810Z,13.68
2018-12-25T09:38:00.687Z,13.45
2018-12-25T09:40:49.184Z,14.80
2018-12-25T09:43:19.009Z,16.27
2018-12-25T09:46:08.070Z,13.03
2018-12-25T09:48:56.579Z,15.63
2018-12-25T09:51:45.731Z,15.98
2018-12-25T09:54:34.624Z,17.35
2018-12-25T09:57:23.793Z,16.67
2018-12-25T10:00:12.698Z,14.75
2018-12-25T10:02:54.262Z,12.50
2018-12-25T10:11:46.706Z,13.25
2018-12-25T10:14:27.360Z,12.30
2018-12-25T10:17:08.966Z,12.50
2018-12-25T10:19:38.696Z,13.10
2018-12-25T10:22:27.572Z,16.70
2018-12-25T10:25:16.381Z,15.15
2018-12-25T10:28:05.395Z,13.80
2018-12-25T10:30:53.359Z,11.90
2018-12-25T10:33:42.157Z,14.47
2018-12-25T10:36:31.385Z,14.73
2018-12-25T10:39:20.175Z,16.17
2018-12-25T10:42:09.357Z,12.80
2018-12-25T10:44:58.143Z,12.90
2018-12-25T10:47:46.605Z,13.10
2018-12-25T10:50:35.420Z,12.68
2018-12-25T10:53:24.713Z,11.05
2018-12-25T10:56:05.846Z,11.38
2018-12-25T10:58:47.489Z,14.20
2018-12-25T11:01:28.469Z,10.23
2018-12-25T11:04:09.875Z,9.85
2018-12-25T11:06:51.499Z,11.68
2018-12-25T11:09:32.893Z,12.45
2018-12-25T11:12:14.373Z,12.18
2018-12-25T11:14:56.321Z,9.00
2018-12-25T11:17:37.249Z,10.25
2018-12-25T11:20:18.856Z,8.63
2018-12-25T11:23:00.019Z,8.27
2018-12-25T11:25:41.025Z,6.77
2018-12-25T11:28:23.329Z,6.03
2018-12-25T11:31:05.097Z,5.40
2018-12-25T11:33:46.548Z,6.73
2018-12-25T11:36:16.455Z,5.50
2018-12-25T11:39:06.306Z,4.72
2018-12-25T11:41:36.303Z,6.20
2018-12-25T11:44:05.986Z,6.72
2018-12-25T11:46:36.324Z,5.97
2018-12-25T11:49:25.143Z,6.87
2018-12-25T11:52:06.219Z,7.00
2018-12-25T11:54:47.584Z,5.17
2018-12-25T11:57:28.425Z,5.50
2018-12-25T12:00:09.702Z,5.60
2018-12-25T12:02:51.068Z,5.57
2018-12-25T12:05:32.081Z,6.03
2018-12-25T12:10:55.483Z,6.10
2018-12-25T12:13:37.464Z,8.33
2018-12-25T12:16:19.349Z,10.72
2018-12-25T12:19:00.791Z,7.33
2018-12-25T12:21:42.515Z,6.40
2018-12-25T12:24:24.147Z,6.12
2018-12-25T12:27:05.549Z,5.35
2018-12-25T12:29:47.483Z,4.55
2018-12-25T12:32:28.335Z,4.78
2018-12-25T12:35:08.873Z,4.95
2018-12-25T12:37:50.396Z,5.67
2018-12-25T12:40:32.220Z,6.47
2018-12-25T12:46:27.048Z,5.42
2018-12-25T12:49:08.856Z,24.85
2018-12-25T12:51:50.231Z,9.08
2018-12-25T12:54:31.268Z,5.87
2018-12-25T12:57:01.286Z,5.15
2018-12-25T12:59:50.588Z,5.00
2018-12-25T13:02:39.523Z,4.80
2018-12-25T13:05:28.464Z,4.97
2018-12-25T13:08:16.987Z,4.40
2018-12-25T13:11:05.683Z,6.97
2018-12-25T13:13:35.459Z,3.93
2018-12-25T13:16:24.243Z,4.35
2018-12-25T13:19:13.442Z,3.87
2018-12-25T13:22:02.306Z,4.00
2018-12-25T13:24:50.839Z,3.77
2018-12-25T13:27:39.427Z,3.87
2018-12-25T13:30:28.565Z,3.60
2018-12-25T13:32:58.329Z,3.83
2018-12-25T13:35:40.308Z,3.20
2018-12-25T13:38:21.697Z,3.43
2018-12-25T13:41:03.260Z,3.37
2018-12-25T13:43:44.012Z,5.00
2018-12-25T13:46:25.772Z,4.17
2018-12-25T13:49:07.088Z,5.10
2018-12-25T13:51:48.184Z,4.70
2018-12-25T13:54:29.522Z,5.03
2018-12-25T13:57:10.511Z,6.05
2018-12-25T13:59:40.558Z,7.03
2018-12-25T14:02:11.045Z,4.70
2018-12-25T14:04:41.225Z,10.38
2018-12-25T14:07:30.407Z,5.00
2018-12-25T14:10:19.663Z,5.08
2018-12-25T14:13:08.447Z,5.35
2018-12-25T14:15:57.045Z,5.90
2018-12-25T14:18:46.131Z,4.67
2018-12-25T14:21:35.034Z,4.40
2018-12-25T14:24:23.715Z,5.20
2018-12-25T14:27:12.402Z,3.83
2018-12-25T14:30:01.193Z,5.08
2018-12-25T14:32:31.072Z,5.10
2018-12-25T14:35:20.179Z,4.87
2018-12-25T14:38:08.635Z,5.30
2018-12-25T14:40:57.876Z,6.08
2018-12-25T14:43:47.158Z,6.33
2018-12-25T14:46:28.264Z,6.20
2018-12-25T14:48:58.982Z,6.65
2018-12-25T14:51:48.293Z,7.20
2018-12-25T14:54:36.552Z,9.90
2018-12-25T14:57:25.780Z,6.20
2018-12-25T14:59:56.009Z,5.40
2018-12-25T15:02:26.217Z,7.90
2018-12-25T15:05:14.947Z,7.75
2018-12-25T15:08:03.795Z,7.20
2018-12-25T15:10:52.149Z,7.15
2018-12-25T15:13:41.607Z,6.58
2018-12-25T15:16:30.861Z,7.78
2018-12-25T15:19:19.968Z,7.45
2018-12-25T15:22:09.348Z,7.30
2018-12-25T15:24:58.203Z,5.97
2018-12-25T15:27:47.434Z,6.75
2018-12-25T15:30:36.741Z,7.50
2018-12-25T15:33:26.319Z,8.15
2018-12-25T15:36:15.510Z,6.95
2018-12-25T15:39:04.940Z,6.92
2018-12-25T15:41:35.679Z,5.42
2018-12-25T15:44:24.746Z,5.35
2018-12-25T15:47:06.033Z,9.70
2018-12-25T15:49:36.720Z,7.60
2018-12-25T15:52:25.327Z,8.98
2018-12-25T15:55:14.910Z,7.80
2018-12-25T15:58:04.313Z,7.00
2018-12-25T16:00:54.338Z,6.15
2018-12-25T16:03:44.273Z,8.40
2018-12-25T16:06:33.935Z,7.85
2018-12-25T16:09:22.638Z,7.35
2018-12-25T16:12:11.720Z,10.30
2018-12-25T16:15:01.246Z,8.73
2018-12-25T16:17:43.208Z,10.58
2018-12-25T16:20:24.827Z,12.28
2018-12-25T16:22:55.344Z,12.10
2018-12-25T16:25:44.588Z,11.08
2018-12-25T16:28:33.176Z,11.48
2018-12-25T16:31:03.097Z,12.25
2018-12-25T16:33:51.873Z,12.65
2018-12-25T16:36:40.523Z,11.00
2018-12-25T16:39:29.482Z,12.10
2018-12-25T16:42:18.847Z,12.30
2018-12-25T16:45:07.857Z,14.53
2018-12-25T16:47:58.626Z,12.00
2018-12-25T16:50:48.244Z,12.50
2018-12-25T16:53:37.724Z,11.25
2018-12-25T16:56:26.305Z,14.60
2018-12-25T16:59:15.656Z,12.53
2018-12-25T17:02:04.551Z,12.82
2018-12-25T17:04:53.150Z,14.23
2018-12-25T17:07:42.533Z,14.13
2018-12-25T17:10:32.075Z,15.05
2018-12-25T17:13:21.452Z,12.35
2018-12-25T17:16:10.414Z,13.58
2018-12-25T17:18:59.000Z,15.13
2018-12-25T17:21:48.283Z,14.60
2018-12-25T17:24:37.785Z,12.95
2018-12-25T17:27:26.814Z,15.58
2018-12-25T17:30:15.777Z,13.20
2018-12-25T17:33:04.442Z,15.72
2018-12-25T17:35:54.587Z,13.80
2018-12-25T17:39:03.954Z,13.68
2018-12-25T17:41:53.472Z,18.27
2018-12-25T17:44:42.995Z,15.83
2018-12-25T17:47:32.804Z,17.35
2018-12-25T17:50:14.783Z,16.55
2018-12-25T17:52:57.328Z,14.95
2018-12-25T17:55:39.447Z,17.25
2018-12-25T17:58:09.983Z,15.48
2018-12-25T18:00:58.606Z,16.73
2018-12-25T18:03:47.030Z,17.57
2018-12-25T18:06:35.704Z,18.60
2018-12-25T18:09:24.630Z,17.32
2018-12-25T18:12:13.825Z,20.35
2018-12-25T18:15:02.385Z,16.32
2018-12-25T18:17:51.393Z,21.30
2018-12-25T18:20:40.282Z,21.70
2018-12-25T18:23:29.665Z,17.65
2018-12-25T18:26:18.768Z,20.55
2018-12-25T18:29:07.487Z,21.05
2018-12-25T18:31:56.502Z,16.15
2018-12-25T18:34:38.544Z,18.07
2018-12-25T18:37:08.944Z,17.45
2018-12-25T18:39:58.301Z,19.45
2018-12-25T18:42:47.275Z,24.37
2018-12-25T18:45:36.158Z,20.40
2018-12-25T18:48:25.713Z,21.33
2018-12-25T18:51:15.903Z,18.75
2018-12-25T18:57:23.617Z,20.75
2018-12-25T19:00:13.629Z,20.05
2018-12-25T19:03:03.580Z,20.40
2018-12-25T19:05:45.845Z,21.87
2018-12-25T19:08:27.863Z,23.42
2018-12-25T19:11:09.371Z,20.37
2018-12-25T19:13:51.606Z,20.75
2018-12-25T19:16:33.715Z,21.23
2018-12-25T19:19:15.474Z,21.45
2018-12-25T19:21:57.333Z,21.52
2018-12-25T19:24:39.162Z,20.52
2018-12-25T19:27:20.810Z,21.52
2018-12-25T19:30:02.552Z,19.40
2018-12-25T19:32:44.307Z,19.05
2018-12-25T19:35:26.186Z,20.17
2018-12-25T19:38:08.188Z,24.63
2018-12-25T19:40:49.575Z,17.92
2018-12-25T19:43:31.912Z,22.30
2018-12-25T19:46:13.474Z,22.55
2018-12-25T19:48:55.163Z,19.62
2018-12-25T19:51:36.768Z,20.62
2018-12-25T19:54:18.109Z,19.37
2018-12-25T19:56:48.934Z,23.38
2018-12-25T19:59:37.968Z,20.23
2018-12-25T20:02:29.407Z,21.12
2018-12-25T20:05:36.845Z,22.90
2018-12-25T20:08:45.053Z,20.80
2018-12-25T20:11:55.811Z,22.07
2018-12-25T20:14:50.651Z,23.67
2018-12-25T20:17:59.558Z,26.65
2018-12-25T20:20:53.814Z,19.90
2018-12-25T20:24:02.106Z,22.87
2018-12-25T20:27:10.486Z,27.37
2018-12-25T20:30:19.612Z,25.10
2018-12-25T20:33:16.529Z,19.10
2018-12-25T20:36:24.608Z,22.02
2018-12-25T20:39:33.480Z,20.77
2018-12-25T20:42:41.876Z,23.65
2018-12-25T20:45:51.204Z,24.40
2018-12-25T20:49:00.886Z,34.48
2018-12-25T20:52:11.588Z,30.52
2018-12-25T20:55:20.396Z,26.55
2018-12-25T20:58:01.358Z,37.20
2018-12-25T21:00:43.215Z,31.87
2018-12-25T21:04:00.752Z,27.65
2018-12-25T21:06:49.672Z,25.55
2018-12-25T21:09:37.970Z,33.13
2018-12-25T21:12:46.004Z,40.50
2018-12-25T21:15:54.323Z,33.83
2018-12-25T21:19:02.598Z,45.67
2018-12-25T21:22:10.570Z,39.15
2018-12-25T21:25:18.248Z,47.62
2018-12-25T21:28:06.485Z,30.80
2018-12-25T21:30:37.216Z,46.18
2018-12-25T21:33:07.847Z,44.25
2018-12-25T21:35:57.079Z,26.68
2018-12-25T21:38:46.910Z,30.97
2018-12-25T21:41:55.717Z,26.27
2018-12-25T21:44:46.456Z,29.65
2018-12-25T21:47:56.254Z,32.08
2018-12-25T21:50:45.236Z,24.40
2018-12-25T21:53:26.671Z,43.00
2018-12-25T21:56:09.160Z,24.70
2018-12-25T21:58:50.313Z,39.75
2018-12-25T22:01:32.127Z,51.90
2018-12-25T22:04:13.557Z,29.20
2018-12-25T22:06:54.957Z,33.58
2018-12-25T22:09:35.446Z,36.08
2018-12-25T22:12:05.548Z,40.48
2018-12-25T22:14:54.792Z,40.88
2018-12-25T22:17:43.147Z,43.15
2018-12-25T22:20:34.432Z,52.33
2018-12-25T22:23:23.960Z,30.80
2018-12-25T22:26:13.388Z,21.17
2018-12-25T22:29:02.468Z,39.00
2018-12-25T22:31:50.756Z,23.05
2018-12-25T22:34:39.612Z,22.20
2018-12-25T22:37:28.941Z,50.45
2018-12-25T22:40:18.290Z,37.17
2018-12-25T22:43:07.585Z,25.43
2018-12-25T22:45:57.202Z,29.00
2018-12-25T22:48:46.191Z,26.70
2018-12-25T22:51:34.777Z,30.65
2018-12-25T22:54:23.961Z,32.80
2018-12-25T22:57:06.109Z,38.38
2018-12-25T22:59:36.619Z,28.95
2018-12-25T23:02:25.613Z,27.42
2018-12-25T23:05:14.832Z,28.90
2018-12-25T23:08:03.939Z,41.50
2018-12-25T23:10:52.903Z,29.18
2018-12-25T23:13:23.583Z,27.93
2018-12-25T23:16:12.540Z,43.63
2018-12-25T23:18:42.959Z,31.62
2018-12-25T23:21:31.899Z,53.92
2018-12-25T23:24:21.564Z,28.45
2018-12-25T23:27:10.400Z,32.70
2018-12-25T23:30:00.001Z,30.82
2018-12-25T23:32:30.952Z,26.35
2018-12-25T23:35:18.735Z,27.22
2018-12-25T23:37:48.128Z,28.52
2018-12-25T23:40:18.500Z,27.98
2018-12-25T23:43:07.537Z,29.27
2018-12-25T23:45:56.585Z,44.48
2018-12-25T23:48:45.950Z,35.08
2018-12-25T23:51:35.016Z,49.27
2018-12-25T23:54:16.757Z,32.73
2018-12-25T23:56:58.345Z,34.30
2018-12-25T23:59:39.526Z,28.30
